createdAt,value
2023-03-17T00:00:25.973Z,0.30
2023-03-17T00:02:53.216Z,0.30
2023-03-17T00:05:20.590Z,0.50
2023-03-17T00:07:48.043Z,0.77
2023-03-17T00:10:20.138Z,1.02
2023-03-17T00:12:47.610Z,0.13
2023-03-17T00:15:15.027Z,0.38
2023-03-17T00:17:42.561Z,0.17
2023-03-17T00:20:14.766Z,0.35
2023-03-17T00:22:42.024Z,0.10
2023-03-17T00:25:18.865Z,1.17
2023-03-17T00:27:46.110Z,0.38
2023-03-17T00:30:13.469Z,0.52
2023-03-17T00:32:40.783Z,0.25
2023-03-17T00:35:15.976Z,0.10
2023-03-17T00:37:43.949Z,0.32
2023-03-17T00:40:29.555Z,0.30
2023-03-17T00:42:57.398Z,0.82
2023-03-17T00:45:25.398Z,0.45
2023-03-17T00:47:53.687Z,0.25
2023-03-17T00:50:25.339Z,0.10
2023-03-17T00:52:53.821Z,0.20
2023-03-17T00:55:21.477Z,0.63
2023-03-17T00:57:49.114Z,0.65
2023-03-17T01:00:22.971Z,0.20
2023-03-17T01:02:50.625Z,0.20
2023-03-17T01:05:17.978Z,0.20
2023-03-17T01:07:52.787Z,1.02
2023-03-17T01:10:25.715Z,0.30
2023-03-17T01:12:53.708Z,0.85
2023-03-17T01:15:21.617Z,0.30
2023-03-17T01:17:50.631Z,0.65
2023-03-17T01:20:19.632Z,0.30
2023-03-17T01:22:46.765Z,0.20
2023-03-17T01:25:14.094Z,0.30
2023-03-17T01:27:41.785Z,0.32
2023-03-17T01:30:14.363Z,0.45
2023-03-17T01:32:41.559Z,0.20
2023-03-17T01:35:08.910Z,0.10
2023-03-17T01:37:36.447Z,0.30
2023-03-17T01:40:03.966Z,0.75
2023-03-17T01:42:31.674Z,0.17
2023-03-17T01:45:03.424Z,0.50
2023-03-17T01:47:31.991Z,1.00
2023-03-17T01:50:01.235Z,0.98
2023-03-17T01:52:28.842Z,0.73
2023-03-17T01:55:01.289Z,0.45
2023-03-17T01:57:32.406Z,0.93
2023-03-17T02:00:02.856Z,0.80
2023-03-17T02:02:31.779Z,0.40
2023-03-17T02:04:59.442Z,0.60
2023-03-17T02:07:27.568Z,0.57
2023-03-17T02:09:55.808Z,0.40
2023-03-17T02:12:24.703Z,0.60
2023-03-17T02:14:52.825Z,0.65
2023-03-17T02:17:21.180Z,0.60
2023-03-17T02:19:48.503Z,0.25
2023-03-17T02:22:16.159Z,0.68
2023-03-17T02:24:47.042Z,0.38
2023-03-17T02:27:16.666Z,0.70
2023-03-17T02:29:46.277Z,0.85
2023-03-17T02:32:17.771Z,0.43
2023-03-17T02:34:45.588Z,1.55
2023-03-17T02:37:12.860Z,1.15
2023-03-17T02:39:40.103Z,0.38
2023-03-17T02:42:07.443Z,0.52
2023-03-17T02:44:34.675Z,0.70
2023-03-17T02:47:02.179Z,0.80
2023-03-17T02:49:30.297Z,0.75
2023-03-17T02:51:57.460Z,1.38
2023-03-17T02:54:26.584Z,0.85
2023-03-17T02:56:53.789Z,1.00
2023-03-17T02:59:21.214Z,1.80
2023-03-17T03:01:49.379Z,0.73
2023-03-17T03:04:17.396Z,0.35
2023-03-17T03:06:44.777Z,0.80
2023-03-17T03:09:12.091Z,1.20
2023-03-17T03:11:39.732Z,0.98
2023-03-17T03:14:08.155Z,1.67
2023-03-17T03:16:36.618Z,1.10
2023-03-17T03:19:04.262Z,1.10
2023-03-17T03:21:31.701Z,1.67
2023-03-17T03:23:58.971Z,1.48
2023-03-17T03:26:26.159Z,0.90
2023-03-17T03:28:53.888Z,0.90
2023-03-17T03:31:21.271Z,1.10
2023-03-17T03:33:48.514Z,0.95
2023-03-17T03:36:16.109Z,0.38
2023-03-17T03:38:43.298Z,0.50
2023-03-17T03:41:11.190Z,0.45
2023-03-17T03:43:38.434Z,1.70
2023-03-17T03:46:06.146Z,1.60
2023-03-17T03:48:33.360Z,1.08
2023-03-17T03:51:01.685Z,0.77
2023-03-17T03:53:29.090Z,0.75
2023-03-17T03:55:57.387Z,0.93
2023-03-17T03:58:24.566Z,0.70
2023-03-17T04:00:51.752Z,1.13
2023-03-17T04:03:18.951Z,0.75
2023-03-17T04:05:46.268Z,0.40
2023-03-17T04:08:13.465Z,1.48
2023-03-17T04:10:40.654Z,0.85
2023-03-17T04:13:08.666Z,2.00
2023-03-17T04:15:35.891Z,2.15
2023-03-17T04:18:03.116Z,2.38
2023-03-17T04:20:30.650Z,2.08
2023-03-17T04:22:57.961Z,1.13
2023-03-17T04:25:26.008Z,1.65
2023-03-17T04:27:53.169Z,2.60
2023-03-17T04:30:20.352Z,2.78
2023-03-17T04:32:47.826Z,2.63
2023-03-17T04:35:16.423Z,2.20
2023-03-17T04:37:43.621Z,2.53
2023-03-17T04:40:12.950Z,3.15
2023-03-17T04:42:40.699Z,2.17
2023-03-17T04:45:09.547Z,1.83
2023-03-17T04:47:37.281Z,2.53
2023-03-17T04:50:05.310Z,2.20
2023-03-17T04:52:32.601Z,1.73
2023-03-17T04:54:59.840Z,2.33
2023-03-17T04:57:27.033Z,1.58
2023-03-17T04:59:54.182Z,2.00
2023-03-17T05:02:21.423Z,1.65
2023-03-17T05:04:48.798Z,1.15
2023-03-17T05:07:16.003Z,2.75
2023-03-17T05:09:43.270Z,1.20
2023-03-17T05:12:10.949Z,1.60
2023-03-17T05:14:38.321Z,1.88
2023-03-17T05:17:05.538Z,1.85
2023-03-17T05:19:32.878Z,1.90
2023-03-17T05:22:00.132Z,1.50
2023-03-17T05:24:27.563Z,3.00
2023-03-17T05:26:54.744Z,1.02
2023-03-17T05:29:22.011Z,1.70
2023-03-17T05:31:49.155Z,1.90
2023-03-17T05:34:17.394Z,2.47
2023-03-17T05:36:44.754Z,1.13
2023-03-17T05:39:14.052Z,0.68
2023-03-17T05:41:42.313Z,2.17
2023-03-17T05:44:10.365Z,1.60
2023-03-17T05:46:37.682Z,1.50
2023-03-17T05:49:04.881Z,1.48
2023-03-17T05:51:32.032Z,1.38
2023-03-17T05:53:59.249Z,1.67
2023-03-17T05:56:33.276Z,1.05
2023-03-17T05:59:01.684Z,1.58
2023-03-17T06:01:29.053Z,2.55
2023-03-17T06:03:56.499Z,1.88
2023-03-17T06:06:24.644Z,1.58
2023-03-17T06:08:53.582Z,0.85
2023-03-17T06:11:21.578Z,1.17
2023-03-17T06:13:49.315Z,1.50
2023-03-17T06:16:16.710Z,1.00
2023-03-17T06:18:44.636Z,0.25
2023-03-17T06:21:12.745Z,1.00
2023-03-17T06:23:39.904Z,0.77
2023-03-17T06:26:07.137Z,0.47
2023-03-17T06:28:34.439Z,0.55
2023-03-17T06:31:01.766Z,1.05
2023-03-17T06:33:29.188Z,0.50
2023-03-17T06:35:58.604Z,0.55
2023-03-17T06:38:25.814Z,0.50
2023-03-17T06:40:53.119Z,0.43
2023-03-17T06:43:22.144Z,0.57
2023-03-17T06:45:49.340Z,0.60
2023-03-17T06:48:16.535Z,0.43
2023-03-17T06:50:43.716Z,0.28
2023-03-17T06:53:11.360Z,0.88
2023-03-17T06:55:38.550Z,0.38
2023-03-17T06:58:06.138Z,0.17
2023-03-17T07:00:33.386Z,0.70
2023-03-17T07:03:00.552Z,0.17
2023-03-17T07:05:27.971Z,0.20
2023-03-17T07:07:55.248Z,0.30
2023-03-17T07:10:23.137Z,0.32
2023-03-17T07:12:50.286Z,0.00
2023-03-17T07:15:18.849Z,0.00
2023-03-17T07:17:46.958Z,0.13
2023-03-17T07:20:14.370Z,0.20
2023-03-17T07:22:42.360Z,0.20
2023-03-17T07:25:09.990Z,0.10
2023-03-17T07:27:39.767Z,0.30
2023-03-17T07:30:07.456Z,0.30
2023-03-17T07:32:35.505Z,0.13
2023-03-17T07:35:04.814Z,0.30
2023-03-17T07:37:32.268Z,0.10
2023-03-17T07:39:59.442Z,0.05
2023-03-17T07:42:28.931Z,0.20
2023-03-17T07:44:56.631Z,0.10
2023-03-17T07:47:23.992Z,0.32
2023-03-17T07:49:51.202Z,0.28
2023-03-17T07:52:18.355Z,0.00
2023-03-17T07:54:45.745Z,0.10
2023-03-17T07:57:13.275Z,0.10
2023-03-17T07:59:41.641Z,0.00
2023-03-17T08:02:11.985Z,0.22
2023-03-17T08:04:39.328Z,0.13
2023-03-17T08:07:06.506Z,0.63
2023-03-17T08:09:33.866Z,0.30
2023-03-17T08:12:01.163Z,0.10
2023-03-17T08:14:28.526Z,0.20
2023-03-17T08:16:55.956Z,0.20
2023-03-17T08:19:24.272Z,0.05
2023-03-17T08:21:51.722Z,0.20
2023-03-17T08:24:19.004Z,0.25
2023-03-17T08:26:49.212Z,0.17
2023-03-17T08:29:16.408Z,0.13
2023-03-17T08:31:46.342Z,1.10
2023-03-17T08:34:14.282Z,0.10
2023-03-17T08:36:41.495Z,0.73
2023-03-17T08:39:11.465Z,0.28
2023-03-17T08:41:38.826Z,0.20
2023-03-17T08:44:08.828Z,0.20
2023-03-17T08:46:36.583Z,0.17
2023-03-17T08:49:04.048Z,0.30
2023-03-17T08:51:32.256Z,0.10
2023-03-17T08:53:59.677Z,0.32
2023-03-17T08:56:27.127Z,1.33
2023-03-17T08:58:54.564Z,0.55
2023-03-17T09:01:22.829Z,0.45
2023-03-17T09:03:53.638Z,0.30
2023-03-17T09:06:22.158Z,0.43
2023-03-17T09:08:55.118Z,0.20
2023-03-17T09:11:23.630Z,0.70
2023-03-17T09:13:51.194Z,0.30
2023-03-17T09:16:19.216Z,1.10
2023-03-17T09:18:47.054Z,0.40
2023-03-17T09:21:14.968Z,0.40
2023-03-17T09:23:42.580Z,0.65
2023-03-17T09:26:10.178Z,0.45
2023-03-17T09:28:37.522Z,0.30
2023-03-17T09:31:06.291Z,1.00
2023-03-17T09:33:33.550Z,0.70
2023-03-17T09:36:00.801Z,0.63
2023-03-17T09:38:28.908Z,0.90
2023-03-17T09:41:15.004Z,0.52
2023-03-17T09:43:50.720Z,0.95
2023-03-17T09:46:35.979Z,0.77
2023-03-17T09:49:20.422Z,0.30
2023-03-17T09:51:47.613Z,0.50
2023-03-17T09:54:25.671Z,0.77
2023-03-17T09:56:59.666Z,0.10
2023-03-17T09:59:30.184Z,0.35
2023-03-17T10:01:57.750Z,0.20
2023-03-17T10:04:25.194Z,1.05
2023-03-17T10:06:53.059Z,0.30
2023-03-17T10:09:29.808Z,0.20
2023-03-17T10:12:04.801Z,0.43
2023-03-17T10:14:55.178Z,0.50
2023-03-17T10:17:23.859Z,0.40
2023-03-17T10:20:06.269Z,0.13
2023-03-17T10:22:39.583Z,0.98
2023-03-17T10:25:13.778Z,0.25
2023-03-17T10:27:41.852Z,0.43
2023-03-17T10:30:17.358Z,0.30
2023-03-17T10:32:46.325Z,0.52
2023-03-17T10:35:14.990Z,0.80
2023-03-17T10:37:43.885Z,0.40
2023-03-17T10:40:25.190Z,0.60
2023-03-17T10:43:01.715Z,0.13
2023-03-17T10:45:33.802Z,0.57
2023-03-17T10:48:02.603Z,1.23
2023-03-17T10:50:32.547Z,0.52
2023-03-17T10:53:20.313Z,0.93
2023-03-17T10:55:51.860Z,0.75
2023-03-17T10:58:21.252Z,0.47
2023-03-17T11:01:00.012Z,0.43
2023-03-17T11:03:30.003Z,0.50
2023-03-17T11:06:04.004Z,0.25
2023-03-17T11:08:32.304Z,0.35
2023-03-17T11:10:59.574Z,0.40
2023-03-17T11:13:31.032Z,0.20
2023-03-17T11:16:10.685Z,0.55
2023-03-17T11:18:39.219Z,1.05
2023-03-17T11:21:13.991Z,0.90
2023-03-17T11:23:41.130Z,0.38
2023-03-17T11:26:24.343Z,0.45
2023-03-17T11:28:56.800Z,0.88
2023-03-17T11:31:28.890Z,0.55
2023-03-17T11:34:07.012Z,0.25
2023-03-17T11:36:45.762Z,0.40
2023-03-17T11:39:15.538Z,0.77
2023-03-17T11:42:02.889Z,0.75
2023-03-17T11:44:49.029Z,0.90
2023-03-17T11:47:19.300Z,0.43
2023-03-17T11:49:50.891Z,0.70
2023-03-17T11:52:19.665Z,0.25
2023-03-17T11:54:50.773Z,0.60
2023-03-17T11:57:21.103Z,0.65
2023-03-17T11:59:52.187Z,0.13
2023-03-17T12:02:37.979Z,0.40
2023-03-17T12:05:17.300Z,0.68
2023-03-17T12:07:56.991Z,0.68
2023-03-17T12:10:40.550Z,0.80
2023-03-17T12:13:14.119Z,0.77
2023-03-17T12:15:44.434Z,0.52
2023-03-17T12:18:33.081Z,0.65
2023-03-17T12:21:04.464Z,0.50
2023-03-17T12:23:52.366Z,0.70
2023-03-17T12:26:21.503Z,0.70
2023-03-17T12:28:48.660Z,0.68
2023-03-17T12:31:42.286Z,0.60
2023-03-17T12:34:29.197Z,0.93
2023-03-17T12:36:56.480Z,0.22
2023-03-17T12:39:50.260Z,0.60
2023-03-17T12:42:17.457Z,0.95
2023-03-17T12:44:47.880Z,1.05
2023-03-17T12:47:15.697Z,1.00
2023-03-17T12:49:46.073Z,1.20
2023-03-17T12:52:42.656Z,1.25
2023-03-17T12:55:14.843Z,0.82
2023-03-17T12:57:43.092Z,1.02
2023-03-17T13:00:29.524Z,1.27
2023-03-17T13:03:15.858Z,0.82
2023-03-17T13:05:46.646Z,0.30
2023-03-17T13:08:16.361Z,0.45
2023-03-17T13:10:50.523Z,1.85
2023-03-17T13:13:29.961Z,1.40
2023-03-17T13:15:58.792Z,0.90
2023-03-17T13:18:35.057Z,1.05
2023-03-17T13:21:02.272Z,0.93
2023-03-17T13:23:38.526Z,0.45
2023-03-17T13:26:06.666Z,0.80
2023-03-17T13:28:42.632Z,1.00
2023-03-17T13:31:31.183Z,0.57
2023-03-17T13:34:03.342Z,0.65
2023-03-17T13:36:43.103Z,0.70
2023-03-17T13:39:24.835Z,1.02
2023-03-17T13:41:55.008Z,0.90
2023-03-17T13:44:34.167Z,0.93
2023-03-17T13:47:20.501Z,1.38
2023-03-17T13:49:52.311Z,0.82
2023-03-17T13:52:27.691Z,1.30
2023-03-17T13:55:05.376Z,0.73
2023-03-17T13:57:37.133Z,0.57
2023-03-17T14:00:25.078Z,0.77
2023-03-17T14:03:18.491Z,0.40
2023-03-17T14:05:51.641Z,0.88
2023-03-17T14:08:23.064Z,0.77
2023-03-17T14:10:54.966Z,0.98
2023-03-17T14:13:27.109Z,0.32
2023-03-17T14:15:59.008Z,0.50
2023-03-17T14:18:31.189Z,0.50
2023-03-17T14:20:59.743Z,0.45
2023-03-17T14:23:27.393Z,0.45
2023-03-17T14:26:02.084Z,0.22
2023-03-17T14:28:31.025Z,1.30
2023-03-17T14:31:02.601Z,0.50
2023-03-17T14:33:31.433Z,0.98
2023-03-17T14:36:00.464Z,1.02
2023-03-17T14:38:27.658Z,0.40
2023-03-17T14:41:06.575Z,0.47
2023-03-17T14:43:34.979Z,0.57
2023-03-17T14:46:06.124Z,0.70
2023-03-17T14:48:34.833Z,0.90
2023-03-17T14:51:06.607Z,1.25
2023-03-17T14:53:35.362Z,0.40
2023-03-17T14:56:04.363Z,0.40
2023-03-17T14:58:32.924Z,0.70
2023-03-17T15:01:04.910Z,0.63
2023-03-17T15:03:34.272Z,0.77
2023-03-17T15:06:18.911Z,1.27
2023-03-17T15:08:46.868Z,0.35
2023-03-17T15:11:25.209Z,1.05
2023-03-17T15:13:55.917Z,0.38
2023-03-17T15:16:31.730Z,1.30
2023-03-17T15:19:09.895Z,0.65
2023-03-17T15:21:41.202Z,0.73
2023-03-17T15:24:39.296Z,0.43
2023-03-17T15:27:08.291Z,0.68
2023-03-17T15:29:35.585Z,0.50
2023-03-17T15:32:04.029Z,1.00
2023-03-17T15:34:31.410Z,0.60
2023-03-17T15:36:59.166Z,0.95
2023-03-17T15:39:26.727Z,0.32
2023-03-17T15:41:54.068Z,0.75
2023-03-17T15:44:22.018Z,0.93
2023-03-17T15:46:49.254Z,0.90
2023-03-17T15:49:16.445Z,1.10
2023-03-17T15:51:43.634Z,1.30
2023-03-17T15:54:13.542Z,0.88
2023-03-17T15:56:43.139Z,0.70
2023-03-17T15:59:10.406Z,1.00
2023-03-17T16:01:38.407Z,0.70
2023-03-17T16:04:06.806Z,1.15
2023-03-17T16:06:34.932Z,0.95
2023-03-17T16:09:02.173Z,0.43
2023-03-17T16:11:31.337Z,1.67
2023-03-17T16:13:59.746Z,0.73
2023-03-17T16:16:37.392Z,0.70
2023-03-17T16:19:13.339Z,1.05
2023-03-17T16:21:40.526Z,0.88
2023-03-17T16:24:10.836Z,0.50
2023-03-17T16:26:38.084Z,1.25
2023-03-17T16:29:11.455Z,0.93
2023-03-17T16:31:38.695Z,1.90
2023-03-17T16:34:14.565Z,1.10
2023-03-17T16:36:43.853Z,1.00
2023-03-17T16:39:16.150Z,0.93
2023-03-17T16:41:43.336Z,1.00
2023-03-17T16:44:12.041Z,0.93
2023-03-17T16:46:39.424Z,1.33
2023-03-17T16:49:06.892Z,0.65
2023-03-17T16:51:34.128Z,0.52
2023-03-17T16:54:01.360Z,1.48
2023-03-17T16:56:28.809Z,0.88
2023-03-17T16:58:57.439Z,2.47
2023-03-17T17:01:26.551Z,1.90
2023-03-17T17:03:54.134Z,1.92
2023-03-17T17:06:22.516Z,0.82
2023-03-17T17:08:50.342Z,1.70
2023-03-17T17:11:18.281Z,1.55
2023-03-17T17:13:47.571Z,0.75
2023-03-17T17:16:20.954Z,0.98
2023-03-17T17:18:48.332Z,1.05
2023-03-17T17:21:15.776Z,1.38
2023-03-17T17:23:42.970Z,1.00
2023-03-17T17:26:10.242Z,0.68
2023-03-17T17:28:39.864Z,1.00
2023-03-17T17:31:08.378Z,0.75
2023-03-17T17:33:36.582Z,0.80
2023-03-17T17:36:04.536Z,0.93
2023-03-17T17:38:32.206Z,0.60
2023-03-17T17:41:03.206Z,1.00
2023-03-17T17:43:30.530Z,1.08
2023-03-17T17:45:57.880Z,1.00
2023-03-17T17:48:26.092Z,1.20
2023-03-17T17:50:53.844Z,0.65
2023-03-17T17:53:21.278Z,1.00
2023-03-17T17:55:49.524Z,1.58
2023-03-17T17:58:18.728Z,0.80
2023-03-17T18:00:46.298Z,0.82
2023-03-17T18:03:13.503Z,0.38
2023-03-17T18:05:40.735Z,0.65
2023-03-17T18:08:07.903Z,0.60
2023-03-17T18:10:35.390Z,0.52
2023-03-17T18:13:02.624Z,0.60
2023-03-17T18:15:29.946Z,0.73
2023-03-17T18:17:57.206Z,1.08
2023-03-17T18:20:24.976Z,1.08
2023-03-17T18:22:52.655Z,1.50
2023-03-17T18:25:19.948Z,1.45
2023-03-17T18:27:49.766Z,2.55
2023-03-17T18:30:27.787Z,0.88
2023-03-17T18:32:57.526Z,1.75
2023-03-17T18:35:26.044Z,1.75
2023-03-17T18:37:53.411Z,1.15
2023-03-17T18:40:20.711Z,0.55
2023-03-17T18:42:47.908Z,0.68
2023-03-17T18:45:15.327Z,1.02
2023-03-17T18:47:42.507Z,1.30
2023-03-17T18:50:11.048Z,1.15
2023-03-17T18:52:39.290Z,0.43
2023-03-17T18:55:07.245Z,1.08
2023-03-17T18:57:34.517Z,1.10
2023-03-17T19:00:01.775Z,0.90
2023-03-17T19:02:29.330Z,2.45
2023-03-17T19:04:56.869Z,1.08
2023-03-17T19:07:24.188Z,1.45
2023-03-17T19:09:51.458Z,1.48
2023-03-17T19:12:18.781Z,1.73
2023-03-17T19:14:46.186Z,1.20
2023-03-17T19:17:13.758Z,1.80
2023-03-17T19:19:41.439Z,1.35
2023-03-17T19:22:09.552Z,1.60
2023-03-17T19:24:37.620Z,0.68
2023-03-17T19:27:05.277Z,1.30
2023-03-17T19:29:33.358Z,1.95
2023-03-17T19:32:00.886Z,2.17
2023-03-17T19:34:28.164Z,1.25
2023-03-17T19:36:55.610Z,0.88
2023-03-17T19:39:22.860Z,0.90
2023-03-17T19:41:53.210Z,0.80
2023-03-17T19:44:21.254Z,0.88
2023-03-17T19:46:48.776Z,0.60
2023-03-17T19:49:16.533Z,1.08
2023-03-17T19:51:44.088Z,1.77
2023-03-17T19:54:11.875Z,1.65
2023-03-17T19:56:39.375Z,0.82
2023-03-17T19:59:09.743Z,1.13
2023-03-17T20:01:37.866Z,1.30
2023-03-17T20:04:06.831Z,0.73
2023-03-17T20:06:34.632Z,1.30
2023-03-17T20:09:04.174Z,1.38
2023-03-17T20:11:34.016Z,0.55
2023-03-17T20:14:04.156Z,0.32
2023-03-17T20:16:33.636Z,0.70
2023-03-17T20:19:01.292Z,0.55
2023-03-17T20:21:28.840Z,0.75
2023-03-17T20:23:56.827Z,0.50
2023-03-17T20:26:24.428Z,0.32
2023-03-17T20:28:51.876Z,0.65
2023-03-17T20:31:19.299Z,0.30
2023-03-17T20:33:46.608Z,0.30
2023-03-17T20:36:14.103Z,0.30
2023-03-17T20:38:43.649Z,0.30
2023-03-17T20:41:14.945Z,0.50
2023-03-17T20:43:42.565Z,0.25
2023-03-17T20:46:14.157Z,0.90
2023-03-17T20:48:41.716Z,0.40
2023-03-17T20:51:15.613Z,0.47
2023-03-17T20:53:46.822Z,0.60
2023-03-17T20:56:15.617Z,0.80
2023-03-17T20:58:46.884Z,0.30
2023-03-17T21:01:14.389Z,1.42
2023-03-17T21:03:42.403Z,0.85
2023-03-17T21:06:10.066Z,0.40
2023-03-17T21:08:37.954Z,0.45
2023-03-17T21:11:06.198Z,0.80
2023-03-17T21:13:33.540Z,0.63
2023-03-17T21:16:01.468Z,0.55
2023-03-17T21:18:29.618Z,0.93
2023-03-17T21:20:57.171Z,0.45
2023-03-17T21:23:24.352Z,0.40
2023-03-17T21:25:56.040Z,0.52
2023-03-17T21:28:23.484Z,0.07
2023-03-17T21:30:50.877Z,0.10
2023-03-17T21:33:18.126Z,0.10
2023-03-17T21:35:45.419Z,0.10
2023-03-17T21:38:12.636Z,0.15
2023-03-17T21:40:39.915Z,0.00
2023-03-17T21:43:07.089Z,0.10
2023-03-17T21:45:34.549Z,0.10
2023-03-17T21:48:01.770Z,0.17
2023-03-17T21:50:30.773Z,0.13
2023-03-17T21:52:57.975Z,0.00
2023-03-17T21:55:25.331Z,0.20
2023-03-17T21:57:52.877Z,0.20
2023-03-17T22:00:20.221Z,0.08
2023-03-17T22:02:47.367Z,0.15
2023-03-17T22:05:14.665Z,0.20
2023-03-17T22:07:41.849Z,0.10
2023-03-17T22:10:09.975Z,0.43
2023-03-17T22:12:37.459Z,0.13
2023-03-17T22:15:05.174Z,0.13
2023-03-17T22:17:32.717Z,0.15
2023-03-17T22:19:59.957Z,0.22
2023-03-17T22:22:27.347Z,0.00
2023-03-17T22:24:56.264Z,0.20
2023-03-17T22:27:23.493Z,0.03
2023-03-17T22:29:50.648Z,0.60
2023-03-17T22:32:17.813Z,0.08
2023-03-17T22:34:45.239Z,0.20
2023-03-17T22:37:12.368Z,0.20
2023-03-17T22:39:39.760Z,0.10
2023-03-17T22:42:06.961Z,0.05
2023-03-17T22:44:34.092Z,0.20
2023-03-17T22:47:01.273Z,0.08
2023-03-17T22:49:28.438Z,0.20
2023-03-17T22:51:55.644Z,0.10
2023-03-17T22:54:22.826Z,0.40
2023-03-17T22:56:50.175Z,0.10
2023-03-17T22:59:17.362Z,0.28
2023-03-17T23:01:45.900Z,0.00
2023-03-17T23:04:14.068Z,0.47
2023-03-17T23:06:41.584Z,0.10
2023-03-17T23:09:09.474Z,0.80
2023-03-17T23:11:37.632Z,0.03
2023-03-17T23:14:05.286Z,0.00
2023-03-17T23:16:32.609Z,0.10
2023-03-17T23:18:59.867Z,0.15
2023-03-17T23:21:31.789Z,0.10
2023-03-17T23:23:59.536Z,0.63
2023-03-17T23:26:27.235Z,0.13
2023-03-17T23:28:54.719Z,0.28
2023-03-17T23:31:22.497Z,0.00
2023-03-17T23:33:51.250Z,0.10
2023-03-17T23:36:18.864Z,0.52
2023-03-17T23:38:46.318Z,0.63
2023-03-17T23:41:14.526Z,0.10
2023-03-17T23:43:41.973Z,0.30
2023-03-17T23:46:09.263Z,0.10
2023-03-17T23:48:37.651Z,0.00
2023-03-17T23:51:04.887Z,0.03
2023-03-17T23:53:32.952Z,0.20
2023-03-17T23:56:00.311Z,0.88
2023-03-17T23:58:27.582Z,0.88
